createdAt,value
2017-08-17T00:01:16.272Z,76.40
2017-08-17T00:03:43.162Z,77.00
2017-08-17T00:06:09.343Z,76.90
2017-08-17T00:08:36.246Z,76.90
2017-08-17T00:11:02.471Z,76.30
2017-08-17T00:13:28.654Z,77.10
2017-08-17T00:15:54.788Z,76.40
2017-08-17T00:18:20.950Z,76.90
2017-08-17T00:20:47.126Z,76.90
2017-08-17T00:23:14.046Z,77.10
2017-08-17T00:25:40.233Z,77.00
2017-08-17T00:28:06.403Z,77.30
2017-08-17T00:30:33.357Z,77.30
2017-08-17T00:32:59.543Z,77.20
2017-08-17T00:35:25.774Z,77.00
2017-08-17T00:37:51.969Z,77.40
2017-08-17T00:40:18.149Z,77.80
2017-08-17T00:42:44.338Z,77.80
2017-08-17T00:45:10.537Z,78.00
2017-08-17T00:47:37.451Z,78.80
2017-08-17T00:50:03.618Z,78.80
2017-08-17T00:52:29.830Z,79.00
2017-08-17T00:54:56.048Z,78.80
2017-08-17T00:57:22.255Z,79.10
2017-08-17T00:59:48.482Z,79.70
2017-08-17T01:02:14.663Z,79.50
2017-08-17T01:04:41.583Z,79.10
2017-08-17T01:07:07.814Z,79.00
2017-08-17T01:09:34.006Z,79.00
2017-08-17T01:12:00.210Z,79.10
2017-08-17T01:14:26.414Z,79.60
2017-08-17T01:16:53.354Z,80.20
2017-08-17T01:19:20.323Z,80.50
2017-08-17T01:21:46.512Z,80.30
2017-08-17T01:31:52.283Z,80.30
2017-08-17T01:34:18.551Z,80.30
2017-08-17T01:36:44.743Z,80.30
2017-08-17T01:39:10.943Z,80.80
2017-08-17T01:41:37.576Z,80.40
2017-08-17T01:44:04.506Z,81.10
2017-08-17T01:46:30.718Z,81.10
2017-08-17T01:48:56.954Z,81.20
2017-08-17T01:51:23.159Z,80.60
2017-08-17T01:53:49.353Z,81.50
2017-08-17T01:56:15.553Z,80.60
2017-08-17T01:58:42.482Z,80.80
2017-08-17T02:01:08.683Z,80.80
2017-08-17T02:03:34.927Z,80.90
2017-08-17T02:06:01.171Z,80.70
2017-08-17T02:08:28.082Z,80.60
2017-08-17T02:10:54.297Z,80.80
2017-08-17T02:13:20.478Z,80.60
2017-08-17T02:15:47.422Z,80.30
2017-08-17T02:18:13.586Z,80.80
2017-08-17T02:20:39.769Z,80.10
2017-08-17T02:23:05.932Z,80.90
2017-08-17T02:25:32.189Z,81.10
2017-08-17T02:27:59.097Z,81.30
2017-08-17T02:30:27.663Z,82.20
2017-08-17T02:32:53.858Z,81.80
2017-08-17T02:35:20.021Z,82.00
2017-08-17T02:37:46.215Z,82.10
2017-08-17T02:40:12.412Z,82.00
2017-08-17T02:42:38.643Z,81.80
2017-08-17T02:45:04.846Z,82.20
2017-08-17T02:47:31.755Z,81.70
2017-08-17T02:49:57.945Z,81.70
2017-08-17T02:52:24.135Z,81.50
2017-08-17T02:54:50.288Z,81.20
2017-08-17T02:57:16.470Z,81.00
2017-08-17T02:59:42.635Z,80.70
2017-08-17T03:02:09.553Z,80.90
2017-08-17T03:04:35.693Z,80.90
2017-08-17T03:07:01.858Z,81.60
2017-08-17T03:09:28.013Z,81.50
2017-08-17T03:11:54.182Z,81.60
2017-08-17T03:14:21.101Z,81.60
2017-08-17T03:16:47.267Z,82.00
2017-08-17T03:19:14.182Z,82.70
2017-08-17T03:21:40.366Z,82.60
2017-08-17T03:24:06.531Z,82.60
2017-08-17T03:26:32.686Z,82.40
2017-08-17T03:28:58.845Z,83.00
2017-08-17T03:31:24.990Z,83.00
2017-08-17T03:33:51.141Z,83.20
2017-08-17T03:36:17.312Z,82.50
2017-08-17T03:38:43.609Z,82.30
2017-08-17T03:41:09.780Z,82.50
2017-08-17T03:43:35.963Z,82.70
2017-08-17T03:46:02.519Z,82.30
2017-08-17T03:48:29.429Z,82.80
2017-08-17T03:50:55.601Z,82.00
2017-08-17T03:53:22.496Z,82.40
2017-08-17T03:55:48.662Z,82.30
2017-08-17T03:58:15.573Z,82.30
2017-08-17T04:00:42.045Z,81.60
2017-08-17T04:03:08.932Z,82.30
2017-08-17T04:05:35.147Z,82.10
2017-08-17T04:08:01.342Z,81.60
2017-08-17T04:10:28.215Z,82.50
2017-08-17T04:12:54.372Z,82.50
2017-08-17T04:15:20.543Z,82.20
2017-08-17T04:17:47.479Z,83.40
2017-08-17T04:20:13.664Z,82.60
2017-08-17T04:22:39.802Z,83.00
2017-08-17T04:25:05.995Z,83.50
2017-08-17T04:27:32.728Z,83.60
2017-08-17T04:29:58.886Z,83.90
2017-08-17T04:32:25.040Z,83.90
2017-08-17T04:34:51.215Z,82.90
2017-08-17T04:37:17.382Z,83.40
2017-08-17T04:39:43.562Z,83.50
2017-08-17T04:42:09.726Z,83.90
2017-08-17T04:44:36.579Z,83.40
2017-08-17T04:47:02.761Z,83.40
2017-08-17T04:49:28.939Z,83.60
2017-08-17T04:51:55.151Z,83.50
2017-08-17T04:54:21.330Z,82.60
2017-08-17T04:57:15.297Z,83.10
2017-08-17T04:59:41.475Z,81.10
2017-08-17T05:02:07.638Z,81.00
2017-08-17T05:04:33.795Z,81.50
2017-08-17T05:07:00.735Z,82.90
2017-08-17T05:09:27.674Z,81.50
2017-08-17T05:11:54.882Z,81.60
2017-08-17T05:14:22.361Z,82.80
2017-08-17T05:16:52.215Z,82.20
2017-08-17T05:19:19.113Z,82.30
2017-08-17T05:21:45.307Z,82.20
2017-08-17T05:24:11.487Z,82.40
2017-08-17T05:26:37.627Z,82.50
2017-08-17T05:29:03.790Z,82.30
2017-08-17T05:31:29.952Z,81.40
2017-08-17T05:33:56.182Z,80.50
2017-08-17T05:36:23.240Z,80.00
2017-08-17T05:38:49.394Z,80.50
2017-08-17T05:41:16.392Z,81.00
2017-08-17T05:43:42.585Z,79.70
2017-08-17T05:46:09.482Z,80.20
2017-08-17T05:48:36.414Z,78.80
2017-08-17T05:51:02.971Z,78.80
2017-08-17T05:53:29.122Z,78.00
2017-08-17T05:55:55.285Z,78.00
2017-08-17T05:58:21.475Z,77.10
2017-08-17T06:00:47.654Z,76.10
2017-08-17T06:03:13.826Z,75.60
2017-08-17T06:05:40.008Z,73.60
2017-08-17T06:08:06.209Z,74.10
2017-08-17T06:10:33.133Z,73.60
2017-08-17T06:12:59.261Z,73.60
2017-08-17T06:15:26.327Z,73.10
2017-08-17T06:17:53.275Z,72.30
2017-08-17T06:20:20.217Z,71.50
2017-08-17T06:22:47.162Z,70.40
2017-08-17T06:25:14.041Z,70.50
2017-08-17T06:27:40.227Z,70.50
2017-08-17T06:30:07.164Z,70.90
2017-08-17T06:32:34.491Z,70.20
2017-08-17T06:35:01.475Z,70.50
2017-08-17T06:37:28.362Z,69.80
2017-08-17T06:39:54.562Z,69.80
2017-08-17T06:42:35.659Z,71.10
2017-08-17T06:45:01.901Z,71.20
2017-08-17T06:47:28.095Z,71.60
2017-08-17T06:49:55.019Z,73.10
2017-08-17T06:52:21.189Z,73.10
2017-08-17T06:54:47.388Z,71.80
2017-08-17T06:57:14.344Z,71.10
2017-08-17T06:59:40.493Z,71.00
2017-08-17T07:02:06.666Z,70.30
2017-08-17T07:04:32.845Z,69.30
2017-08-17T07:06:59.111Z,68.70
2017-08-17T07:09:25.306Z,68.20
2017-08-17T07:11:51.478Z,67.80
2017-08-17T07:14:17.688Z,67.00
2017-08-17T07:16:43.882Z,65.50
2017-08-17T07:19:10.050Z,65.60
2017-08-17T07:21:36.208Z,65.70
2017-08-17T07:24:03.197Z,64.70
2017-08-17T07:26:29.341Z,64.60
2017-08-17T07:28:55.542Z,64.70
2017-08-17T07:31:21.795Z,63.90
2017-08-17T07:33:48.103Z,66.00
2017-08-17T07:36:14.312Z,64.00
2017-08-17T07:38:41.213Z,63.10
2017-08-17T07:41:07.392Z,61.10
2017-08-17T07:43:33.584Z,60.00
2017-08-17T07:45:59.730Z,60.30
2017-08-17T07:48:26.649Z,60.40
2017-08-17T07:50:52.845Z,60.40
2017-08-17T07:53:19.014Z,60.80
2017-08-17T07:55:45.196Z,61.40
2017-08-17T07:58:12.401Z,61.10
2017-08-17T08:00:38.572Z,61.50
2017-08-17T08:03:04.771Z,61.30
2017-08-17T08:05:30.978Z,62.20
2017-08-17T08:07:57.161Z,61.70
2017-08-17T08:10:23.317Z,63.00
2017-08-17T08:12:49.467Z,63.40
2017-08-17T08:15:15.666Z,64.40
2017-08-17T08:17:41.843Z,63.30
2017-08-17T08:20:08.818Z,65.60
2017-08-17T08:22:35.045Z,65.50
2017-08-17T08:25:01.218Z,62.60
2017-08-17T08:27:27.373Z,63.10
2017-08-17T08:29:53.574Z,60.30
2017-08-17T08:32:19.828Z,59.40
2017-08-17T08:34:46.027Z,60.00
2017-08-17T08:37:12.151Z,61.70
2017-08-17T08:39:38.362Z,63.50
2017-08-17T08:42:04.604Z,64.60
2017-08-17T08:44:30.766Z,64.60
2017-08-17T08:46:57.679Z,66.80
2017-08-17T08:49:23.843Z,66.60
2017-08-17T08:51:50.727Z,67.90
2017-08-17T08:54:16.903Z,67.90
2017-08-17T08:56:43.818Z,67.90
2017-08-17T08:59:09.967Z,66.80
2017-08-17T09:01:36.182Z,67.50
2017-08-17T09:04:02.403Z,66.30
2017-08-17T09:06:28.571Z,67.60
2017-08-17T09:08:55.511Z,66.00
2017-08-17T09:11:22.399Z,67.50
2017-08-17T09:13:48.607Z,66.40
2017-08-17T09:16:14.818Z,66.90
2017-08-17T09:18:41.732Z,67.80
2017-08-17T09:21:07.958Z,67.70
2017-08-17T09:23:34.123Z,67.70
2017-08-17T09:26:00.304Z,66.30
2017-08-17T09:28:26.562Z,64.90
2017-08-17T09:30:52.733Z,64.60
2017-08-17T09:33:18.928Z,64.00
2017-08-17T09:35:45.820Z,63.70
2017-08-17T09:38:11.998Z,63.70
2017-08-17T09:40:38.939Z,62.70
2017-08-17T09:43:05.886Z,62.00
2017-08-17T09:45:32.430Z,61.10
2017-08-17T09:47:59.317Z,62.30
2017-08-17T09:50:25.526Z,62.30
2017-08-17T09:52:51.662Z,62.70
2017-08-17T09:55:17.852Z,61.60
2017-08-17T09:57:44.024Z,61.60
2017-08-17T10:00:10.224Z,61.30
2017-08-17T10:02:36.443Z,60.60
2017-08-17T10:05:03.386Z,61.50
2017-08-17T10:07:29.550Z,59.90
2017-08-17T10:09:55.723Z,59.80
2017-08-17T10:12:21.862Z,59.80
2017-08-17T10:14:48.082Z,58.30
2017-08-17T10:17:14.281Z,59.20
2017-08-17T10:19:40.471Z,57.30
2017-08-17T10:22:09.444Z,57.80
2017-08-17T10:24:36.511Z,59.00
2017-08-17T10:27:02.676Z,58.90
2017-08-17T10:29:28.830Z,60.30
2017-08-17T10:31:55.002Z,60.20
2017-08-17T10:34:21.171Z,60.10
2017-08-17T10:36:47.382Z,60.20
2017-08-17T10:39:13.530Z,60.10
2017-08-17T10:41:39.716Z,60.30
2017-08-17T10:44:06.720Z,60.40
2017-08-17T10:46:32.903Z,58.80
2017-08-17T10:48:59.094Z,58.60
2017-08-17T10:51:26.014Z,59.30
2017-08-17T10:53:52.199Z,59.20
2017-08-17T10:56:18.359Z,59.40
2017-08-17T10:58:44.539Z,59.50
2017-08-17T11:01:11.582Z,59.20
2017-08-17T11:03:38.500Z,57.80
2017-08-17T11:06:04.670Z,57.80
2017-08-17T11:08:30.854Z,57.10
2017-08-17T11:10:57.070Z,56.70
2017-08-17T11:13:24.230Z,57.50
2017-08-17T11:15:50.407Z,57.30
2017-08-17T11:18:16.642Z,55.90
2017-08-17T11:20:42.802Z,55.40
2017-08-17T11:23:08.961Z,55.50
2017-08-17T11:25:35.131Z,54.70
2017-08-17T11:28:01.323Z,54.20
2017-08-17T11:30:28.244Z,51.70
2017-08-17T11:32:55.180Z,51.40
2017-08-17T11:35:21.349Z,51.30
2017-08-17T11:37:48.299Z,53.20
2017-08-17T11:40:14.500Z,52.40
2017-08-17T11:42:41.422Z,51.20
2017-08-17T11:45:07.603Z,50.30
2017-08-17T11:47:33.743Z,50.90
2017-08-17T11:49:59.938Z,52.60
2017-08-17T11:52:26.870Z,53.50
2017-08-17T11:54:53.064Z,52.50
2017-08-17T11:57:19.222Z,53.00
2017-08-17T11:59:45.402Z,52.10
2017-08-17T12:02:11.718Z,52.80
2017-08-17T12:04:38.675Z,52.00
2017-08-17T12:07:04.859Z,52.00
2017-08-17T12:09:31.813Z,49.70
2017-08-17T12:11:58.718Z,51.00
2017-08-17T12:14:25.624Z,51.90
2017-08-17T12:16:51.801Z,52.50
2017-08-17T12:19:17.982Z,52.00
2017-08-17T12:21:44.143Z,52.50
2017-08-17T12:24:10.303Z,52.10
2017-08-17T12:26:36.498Z,50.10
2017-08-17T12:29:02.658Z,48.30
2017-08-17T12:31:28.842Z,46.60
2017-08-17T12:33:55.266Z,45.50
2017-08-17T12:36:21.437Z,47.40
2017-08-17T12:38:47.600Z,45.50
2017-08-17T12:41:14.567Z,46.30
2017-08-17T12:43:41.395Z,46.20
2017-08-17T12:46:08.324Z,45.20
2017-08-17T12:48:35.216Z,47.10
2017-08-17T12:51:01.800Z,46.80
2017-08-17T12:53:28.015Z,45.70
2017-08-17T12:55:54.230Z,46.00
2017-08-17T12:58:20.445Z,45.60
2017-08-17T13:00:48.671Z,44.50
2017-08-17T13:03:15.616Z,44.40
2017-08-17T13:05:42.555Z,46.70
2017-08-17T13:08:08.710Z,46.50
2017-08-17T13:10:37.161Z,49.60
2017-08-17T13:13:04.090Z,50.30
2017-08-17T13:15:30.333Z,50.30
2017-08-17T13:17:56.557Z,50.10
2017-08-17T13:20:22.760Z,48.80
2017-08-17T13:22:49.024Z,47.80
2017-08-17T13:25:15.232Z,45.90
2017-08-17T13:27:41.452Z,45.10
2017-08-17T13:30:07.852Z,45.10
2017-08-17T13:32:34.211Z,44.50
2017-08-17T13:35:00.441Z,45.10
2017-08-17T13:37:26.617Z,43.80
2017-08-17T13:39:53.511Z,45.50
2017-08-17T13:42:19.682Z,45.50
2017-08-17T13:44:46.635Z,44.40
2017-08-17T13:47:13.210Z,44.30
2017-08-17T13:49:39.436Z,45.10
2017-08-17T13:52:06.021Z,46.50
2017-08-17T13:54:32.185Z,47.10
2017-08-17T13:56:58.429Z,47.30
2017-08-17T13:59:24.618Z,48.10
2017-08-17T14:01:51.523Z,49.60
2017-08-17T14:04:17.695Z,49.70
2017-08-17T14:06:44.614Z,49.10
2017-08-17T14:09:10.799Z,48.50
2017-08-17T14:11:36.986Z,49.10
2017-08-17T14:14:03.168Z,49.30
2017-08-17T14:16:29.364Z,49.10
2017-08-17T14:18:56.306Z,50.20
2017-08-17T14:21:23.234Z,48.60
2017-08-17T14:23:50.131Z,49.60
2017-08-17T14:26:16.433Z,49.50
2017-08-17T14:28:42.613Z,50.20
2017-08-17T14:31:08.801Z,50.10
2017-08-17T14:33:35.939Z,48.40
2017-08-17T14:36:02.092Z,50.00
2017-08-17T14:38:28.292Z,50.20
2017-08-17T14:40:55.190Z,49.70
2017-08-17T14:43:21.495Z,51.20
2017-08-17T14:45:47.814Z,51.60
2017-08-17T14:48:14.120Z,51.60
2017-08-17T14:50:41.070Z,51.30
2017-08-17T14:53:08.045Z,50.00
2017-08-17T14:55:34.275Z,50.20
2017-08-17T14:58:00.425Z,50.80
2017-08-17T15:00:27.275Z,50.80
2017-08-17T15:02:53.486Z,51.00
2017-08-17T15:05:19.745Z,50.50
2017-08-17T15:07:47.128Z,50.30
2017-08-17T15:10:16.406Z,49.70
2017-08-17T15:12:42.661Z,50.20
2017-08-17T15:15:09.967Z,50.10
2017-08-17T15:17:36.201Z,50.10
2017-08-17T15:20:02.401Z,52.60
2017-08-17T15:22:29.475Z,51.30
2017-08-17T15:24:55.711Z,52.50
2017-08-17T15:27:21.904Z,52.10
2017-08-17T15:29:48.136Z,51.40
2017-08-17T15:32:14.583Z,53.30
2017-08-17T15:34:41.123Z,54.00
2017-08-17T15:37:07.277Z,53.40
2017-08-17T15:39:33.463Z,54.00
2017-08-17T15:41:59.610Z,54.60
2017-08-17T15:44:26.725Z,55.60
2017-08-17T15:46:52.921Z,54.40
2017-08-17T15:49:19.819Z,56.40
2017-08-17T15:51:46.002Z,54.30
2017-08-17T15:54:13.804Z,55.30
2017-08-17T15:56:39.986Z,55.60
2017-08-17T15:59:13.641Z,55.80
2017-08-17T16:01:39.888Z,53.90
2017-08-17T16:04:06.062Z,55.10
2017-08-17T16:06:33.034Z,55.60
2017-08-17T16:08:59.232Z,54.70
2017-08-17T16:11:26.141Z,55.70
2017-08-17T16:13:52.314Z,55.50
2017-08-17T16:16:18.541Z,55.40
2017-08-17T16:18:45.466Z,55.40
2017-08-17T16:21:11.703Z,55.40
2017-08-17T16:23:37.863Z,55.50
2017-08-17T16:26:04.054Z,55.80
2017-08-17T16:28:30.961Z,55.20
2017-08-17T16:30:57.133Z,55.20
2017-08-17T16:33:24.070Z,55.80
2017-08-17T16:35:50.242Z,54.90
2017-08-17T16:38:17.160Z,55.10
2017-08-17T16:40:43.313Z,56.10
2017-08-17T16:43:09.509Z,56.50
2017-08-17T16:45:36.392Z,55.90
2017-08-17T16:48:02.619Z,55.90
2017-08-17T16:50:28.850Z,57.00
2017-08-17T16:52:55.416Z,56.30
2017-08-17T16:55:26.777Z,56.00
2017-08-17T16:57:56.951Z,56.90
2017-08-17T17:00:23.154Z,56.40
2017-08-17T17:02:50.307Z,57.00
2017-08-17T17:05:17.292Z,56.80
2017-08-17T17:07:43.480Z,56.80
2017-08-17T17:10:10.403Z,56.90
2017-08-17T17:12:36.627Z,56.50
2017-08-17T17:15:02.819Z,57.10
2017-08-17T17:17:29.051Z,57.10
2017-08-17T17:19:55.269Z,57.10
2017-08-17T17:22:21.443Z,57.90
2017-08-17T17:24:47.592Z,57.50
2017-08-17T17:27:14.526Z,57.90
2017-08-17T17:29:40.719Z,57.60
2017-08-17T17:32:06.886Z,57.90
2017-08-17T17:34:33.833Z,58.10
2017-08-17T17:37:00.757Z,59.40
2017-08-17T17:39:27.998Z,57.90
2017-08-17T17:41:54.139Z,58.40
2017-08-17T17:44:20.352Z,58.00
2017-08-17T17:46:46.891Z,59.10
2017-08-17T17:49:13.066Z,58.20
2017-08-17T17:51:40.767Z,59.50
2017-08-17T18:03:57.775Z,60.00
2017-08-17T18:06:23.965Z,58.90
2017-08-17T18:08:50.181Z,59.10
2017-08-17T18:11:16.346Z,60.00
2017-08-17T18:13:42.607Z,60.30
2017-08-17T18:16:08.835Z,59.70
2017-08-17T18:18:35.039Z,59.40
2017-08-17T18:21:01.244Z,59.90
2017-08-17T18:23:27.425Z,59.60
2017-08-17T18:25:54.358Z,61.70
2017-08-17T18:28:20.559Z,60.60
2017-08-17T18:30:46.730Z,61.10
2017-08-17T18:33:13.638Z,61.00
2017-08-17T18:35:39.818Z,60.90
2017-08-17T18:38:06.738Z,61.70
2017-08-17T18:40:32.957Z,61.70
2017-08-17T18:42:59.163Z,61.60
2017-08-17T18:45:25.506Z,61.50
2017-08-17T18:47:51.745Z,61.80
2017-08-17T18:50:18.742Z,63.10
2017-08-17T18:52:44.926Z,62.50
2017-08-17T18:55:11.126Z,62.70
2017-08-17T18:57:37.312Z,63.80
2017-08-17T19:00:05.173Z,63.50
2017-08-17T19:02:32.111Z,63.50
2017-08-17T19:04:59.023Z,64.50
2017-08-17T19:07:25.239Z,62.90
2017-08-17T19:09:51.485Z,64.00
2017-08-17T19:12:17.673Z,63.40
2017-08-17T19:14:45.042Z,63.30
2017-08-17T19:17:11.290Z,63.60
2017-08-17T19:19:37.506Z,64.00
2017-08-17T19:22:03.700Z,63.30
2017-08-17T19:24:31.596Z,65.00
2017-08-17T19:26:57.786Z,63.30
2017-08-17T19:29:25.453Z,64.10
2017-08-17T19:31:52.404Z,64.60
2017-08-17T19:34:19.977Z,63.50
2017-08-17T19:36:46.250Z,64.20
2017-08-17T19:39:18.815Z,64.00
2017-08-17T19:41:45.046Z,64.90
2017-08-17T19:44:11.238Z,65.10
2017-08-17T19:46:37.469Z,65.60
2017-08-17T19:49:03.665Z,65.70
2017-08-17T19:52:14.152Z,65.30
2017-08-17T19:54:41.085Z,66.80
2017-08-17T19:57:08.383Z,67.20
2017-08-17T19:59:34.583Z,65.70
2017-08-17T20:02:00.817Z,66.30
2017-08-17T20:04:27.007Z,66.40
2017-08-17T20:06:53.183Z,66.40
2017-08-17T20:09:19.383Z,65.80
2017-08-17T20:11:46.336Z,66.50
2017-08-17T20:14:14.306Z,67.40
2017-08-17T20:16:40.510Z,67.50
2017-08-17T20:19:06.750Z,68.10
2017-08-17T20:21:32.965Z,67.60
2017-08-17T20:23:59.166Z,68.10
2017-08-17T20:26:25.489Z,67.60
2017-08-17T20:28:51.725Z,68.20
2017-08-17T20:31:18.055Z,68.20
2017-08-17T20:33:44.232Z,68.60
2017-08-17T20:36:11.203Z,68.30
2017-08-17T20:38:37.405Z,67.50
2017-08-17T20:41:03.583Z,68.00
2017-08-17T20:43:29.829Z,68.50
2017-08-17T20:45:56.709Z,68.30
2017-08-17T20:48:23.754Z,68.50
2017-08-17T20:50:50.670Z,69.10
2017-08-17T20:53:16.953Z,68.40
2017-08-17T20:55:43.138Z,68.40
2017-08-17T20:58:09.704Z,68.50
2017-08-17T21:00:37.366Z,68.50
2017-08-17T21:03:05.015Z,68.50
2017-08-17T21:07:59.923Z,69.60
2017-08-17T21:10:26.106Z,69.60
2017-08-17T21:12:52.299Z,70.10
2017-08-17T21:15:19.611Z,69.50
2017-08-17T21:17:45.785Z,69.60
2017-08-17T21:20:12.710Z,70.80
2017-08-17T21:22:38.894Z,70.50
2017-08-17T21:25:05.506Z,69.90
2017-08-17T21:27:31.723Z,70.50
2017-08-17T21:29:58.693Z,70.20
2017-08-17T21:32:24.888Z,70.50
2017-08-17T21:34:52.706Z,71.00
2017-08-17T21:37:18.867Z,70.30
2017-08-17T21:39:45.421Z,71.50
2017-08-17T21:42:12.379Z,71.50
2017-08-17T21:44:39.337Z,71.60
2017-08-17T21:47:05.518Z,72.00
2017-08-17T21:49:31.707Z,71.80
2017-08-17T21:51:57.942Z,72.00
2017-08-17T21:54:24.150Z,71.80
2017-08-17T21:56:50.316Z,72.10
2017-08-17T21:59:16.522Z,72.10
2017-08-17T22:01:42.716Z,72.00
2017-08-17T22:04:09.648Z,73.00
2017-08-17T22:06:35.871Z,72.30
2017-08-17T22:09:02.122Z,72.50
2017-08-17T22:11:29.108Z,72.60
2017-08-17T22:13:55.275Z,72.00
2017-08-17T22:16:21.865Z,72.00
2017-08-17T22:18:48.910Z,72.50
2017-08-17T22:21:15.970Z,72.40
2017-08-17T22:23:42.397Z,72.60
2017-08-17T22:26:08.614Z,72.40
2017-08-17T22:28:34.769Z,72.40
2017-08-17T22:31:02.656Z,72.40
2017-08-17T22:33:28.859Z,72.20
2017-08-17T22:35:55.030Z,72.50
2017-08-17T22:38:21.191Z,72.90
2017-08-17T22:40:47.424Z,73.20
2017-08-17T22:43:13.619Z,73.40
2017-08-17T22:45:40.591Z,74.20
2017-08-17T22:48:07.499Z,72.60
2017-08-17T22:50:33.670Z,73.40
2017-08-17T22:52:59.836Z,74.00
2017-08-17T22:55:26.023Z,73.80
2017-08-17T22:57:52.223Z,74.40
2017-08-17T23:00:19.932Z,74.20
2017-08-17T23:02:46.131Z,73.40
2017-08-17T23:05:12.681Z,73.30
2017-08-17T23:07:38.854Z,73.30
2017-08-17T23:10:05.405Z,73.50
2017-08-17T23:12:31.575Z,73.80
2017-08-17T23:14:57.740Z,74.30
2017-08-17T23:17:23.921Z,73.70
2017-08-17T23:19:50.095Z,73.90
2017-08-17T23:22:17.072Z,74.50
2017-08-17T23:24:43.983Z,76.00
2017-08-17T23:27:10.147Z,75.40
2017-08-17T23:29:37.088Z,75.20
2017-08-17T23:32:03.259Z,75.20
2017-08-17T23:34:29.411Z,74.50
2017-08-17T23:36:55.593Z,74.70
2017-08-17T23:39:21.756Z,75.00
2017-08-17T23:41:47.925Z,75.40
2017-08-17T23:44:14.092Z,75.40
2017-08-17T23:46:40.244Z,74.80
2017-08-17T23:49:06.392Z,75.10
2017-08-17T23:51:32.534Z,75.90
2017-08-17T23:53:58.697Z,75.30
2017-08-17T23:56:24.904Z,75.90
2017-08-17T23:58:51.797Z,75.40
